»·PEaware :: N2710U KPDX-KYKM

N2710U :: KPDX-KYKM

FLIGHT INFORMATION

Flight Status: Arrived
Operator: Privately registered:
United States
More flights under this callsign
Pilot: Nathan P. (3026)
Aircraft: BEECH AIRCRAFT BARON
(BE58)
More flights by this aircraft type
Origin: KPDX Portland Intl
United States
Destination: KYKM Yakima Air Term/Mcallister
United States
More flights between these airports :: More routes between these airports
Route:
File this flight plan on PilotEdge
Remarks:
Altitude:
(Current/Filed)
7,500ft
Speed:
(Current/Filed)
0kts
Departed: 04-Dec-20 08:32 AM
Arrived: 04-Dec-20 09:27 AM
Distance/Time
Traveled:
104nm/0:55
Distance/Time
To Go:
Arrived

Flight Plot

Page will automatically refresh every two minutes.

Flight plan parsing failed; only flown route is shown


Map Options




Map Legend


Flown Route
Filed Route
Departure Airport
Arrival Airport
Navaid (VOR, NDB)
Fix

Horizontal Profiles

Position Reports

Time Latitude Longitude Heading Altitude Ground
Speed
04-Dec-20 08:25 45.587430 -122.583528 208 25ft 0kts
04-Dec-20 08:26 45.587430 -122.583528 208 25ft 0kts
04-Dec-20 08:27 45.587436 -122.583294 42 25ft 6kts
04-Dec-20 08:28 45.589931 -122.586441 299 25ft 19kts
04-Dec-20 08:29 45.592942 -122.594090 298 25ft 23kts
04-Dec-20 08:30 45.594471 -122.597510 43 25ft 0kts
04-Dec-20 08:31 45.592985 -122.590819 118 25ft 85kts
04-Dec-20 08:32 45.577935 -122.548470 113 531ft 129kts
04-Dec-20 08:33 45.564348 -122.498655 84 1336ft 143kts
04-Dec-20 08:34 45.592009 -122.466318 17 2330ft 136kts
04-Dec-20 08:35 45.626166 -122.449518 20 3404ft 125kts
04-Dec-20 08:36 45.654037 -122.409813 47 3970ft 144kts
04-Dec-20 08:37 45.679940 -122.369242 46 4944ft 134kts
04-Dec-20 08:38 45.704615 -122.331119 46 5929ft 127kts
04-Dec-20 08:39 45.728054 -122.294847 46 6916ft 121kts
04-Dec-20 08:40 45.752840 -122.256382 46 7503ft 145kts
04-Dec-20 08:41 45.783709 -122.208254 46 7522ft 176kts
04-Dec-20 08:42 45.817638 -122.155382 46 7518ft 182kts
04-Dec-20 08:44 45.840517 -122.091550 73 7518ft 184kts
04-Dec-20 08:45 45.853744 -122.018907 74 7370ft 187kts
04-Dec-20 08:46 45.866850 -121.946847 74 7371ft 185kts
04-Dec-20 08:47 45.879811 -121.875409 74 7384ft 184kts
04-Dec-20 08:48 45.892680 -121.804002 74 7411ft 184kts
04-Dec-20 08:49 45.905439 -121.732916 74 7438ft 184kts
04-Dec-20 08:50 45.918168 -121.661659 74 7462ft 184kts
04-Dec-20 08:51 45.930897 -121.590144 74 7462ft 185kts
04-Dec-20 08:52 45.943595 -121.518515 74 7462ft 185kts
04-Dec-20 08:53 45.956197 -121.447083 74 7462ft 185kts
04-Dec-20 08:54 45.968825 -121.375205 74 7462ft 185kts
04-Dec-20 08:55 45.999185 -121.317317 45 7463ft 183kts
04-Dec-20 08:56 46.034765 -121.264730 45 7462ft 183kts
04-Dec-20 08:57 46.070121 -121.211591 45 7462ft 184kts
04-Dec-20 08:58 46.105375 -121.158277 45 7463ft 183kts
04-Dec-20 08:59 46.140367 -121.105241 45 7505ft 183kts
04-Dec-20 08:59 46.168543 -121.062381 45 7250ft 179kts
04-Dec-20 09:01 46.209624 -120.999652 45 6447ft 186kts
04-Dec-20 09:02 46.245226 -120.945309 44 5753ft 187kts
04-Dec-20 09:03 46.280940 -120.890744 44 5056ft 186kts
04-Dec-20 09:03 46.309087 -120.847647 44 4968ft 168kts
04-Dec-20 09:05 46.353107 -120.807907 24 4972ft 157kts
04-Dec-20 09:06 46.391855 -120.779094 25 4972ft 156kts
04-Dec-20 09:06 46.424078 -120.755018 25 4972ft 156kts
04-Dec-20 09:08 46.461024 -120.710382 88 4999ft 161kts
04-Dec-20 09:08 46.431559 -120.683727 146 5047ft 158kts
04-Dec-20 09:10 46.395425 -120.627681 114 4948ft 165kts
04-Dec-20 09:10 46.378728 -120.578091 123 4982ft 164kts
04-Dec-20 09:11 46.361084 -120.519011 85 4930ft 164kts
04-Dec-20 09:12 46.357176 -120.453497 91 4958ft 163kts
04-Dec-20 09:13 46.357235 -120.388421 72 4958ft 162kts
04-Dec-20 09:14 46.374083 -120.329120 61 5007ft 158kts
04-Dec-20 09:15 46.390773 -120.271834 41 5004ft 158kts
04-Dec-20 09:16 46.422365 -120.228009 47 5050ft 157kts
04-Dec-20 09:17 46.450503 -120.179855 37 5052ft 158kts
04-Dec-20 09:18 46.479509 -120.202455 295 5008ft 147kts
04-Dec-20 09:20 46.497789 -120.267995 291 4592ft 143kts
04-Dec-20 09:20 46.508933 -120.315781 299 4165ft 153kts
04-Dec-20 09:21 46.524331 -120.368162 292 3373ft 124kts
04-Dec-20 09:22 46.534871 -120.411573 303 2611ft 100kts
04-Dec-20 09:23 46.545813 -120.454304 287 2161ft 126kts
04-Dec-20 09:24 46.555118 -120.492889 293 1734ft 119kts
04-Dec-20 09:25 46.565378 -120.530946 291 1084ft 94kts
04-Dec-20 09:26 46.570407 -120.549515 7 1083ft 9kts
04-Dec-20 09:27 46.570275 -120.545786 111 1077ft 27kts
04-Dec-20 09:28 46.570633 -120.543475 98 1074ft 0kts
04-Dec-20 09:29 46.570633 -120.543475 98 1074ft 0kts
04-Dec-20 09:30 46.570633 -120.543475 98 1074ft 0kts
04-Dec-20 09:31 46.570633 -120.543475 98 1074ft 0kts
04-Dec-20 09:32 46.570633 -120.543475 98 1074ft 0kts
04-Dec-20 09:33 46.570633 -120.543475 98 1074ft 0kts
04-Dec-20 09:34 46.570633 -120.543475 98 1074ft 0kts
04-Dec-20 09:35 46.570633 -120.543475 98 1074ft 0kts
04-Dec-20 09:36 46.570633 -120.543475 98 1074ft 0kts
04-Dec-20 09:37 46.570633 -120.543475 98 1074ft 0kts
04-Dec-20 09:38 46.570633 -120.543475 98 1074ft 0kts
04-Dec-20 09:39 46.570633 -120.543475 98 1074ft 0kts
04-Dec-20 09:40 46.570633 -120.543475 98 1074ft 0kts

Navigation Log

Ident Type
Flight plan parsing failed, navigation log unavailable